sensor_id;sensor_type;location;lat;lon;timestamp;pressure;altitude;pressure_sealevel;temperature;humidity
74524;BME280;63074;44.696;10.358;2023-04-01T00:01:00;98859.63;;;11.19;100.00
74524;BME280;63074;44.696;10.358;2023-04-01T00:03:27;98847.78;;;11.09;100.00
74524;BME280;63074;44.696;10.358;2023-04-01T00:05:57;98847.50;;;10.96;100.00
74524;BME280;63074;44.696;10.358;2023-04-01T00:08:24;98856.38;;;11.01;100.00
74524;BME280;63074;44.696;10.358;2023-04-01T00:10:51;98861.22;;;11.14;100.00
74524;BME280;63074;44.696;10.358;2023-04-01T00:13:17;98851.31;;;11.25;100.00
74524;BME280;63074;44.696;10.358;2023-04-01T00:15:44;98856.94;;;11.39;100.00
74524;BME280;63074;44.696;10.358;2023-04-01T00:18:11;98854.75;;;11.56;100.00
74524;BME280;63074;44.696;10.358;2023-04-01T00:20:37;98865.00;;;11.34;100.00
74524;BME280;63074;44.696;10.358;2023-04-01T00:23:03;98860.69;;;11.58;100.00
74524;BME280;63074;44.696;10.358;2023-04-01T00:25:31;98867.69;;;11.59;100.00
74524;BME280;63074;44.696;10.358;2023-04-01T00:27:57;98868.75;;;11.73;100.00
74524;BME280;63074;44.696;10.358;2023-04-01T00:30:23;98868.16;;;10.75;100.00
74524;BME280;63074;44.696;10.358;2023-04-01T00:32:52;98872.47;;;10.81;100.00
74524;BME280;63074;44.696;10.358;2023-04-01T00:35:19;98868.63;;;10.52;100.00
74524;BME280;63074;44.696;10.358;2023-04-01T00:37:45;98881.53;;;10.60;100.00
74524;BME280;63074;44.696;10.358;2023-04-01T00:40:34;98868.78;;;11.23;100.00
74524;BME280;63074;44.696;10.358;2023-04-01T00:43:02;98865.25;;;11.32;100.00
74524;BME280;63074;44.696;10.358;2023-04-01T00:45:32;98863.66;;;11.36;100.00
74524;BME280;63074;44.696;10.358;2023-04-01T00:48:02;98867.16;;;11.42;100.00
74524;BME280;63074;44.696;10.358;2023-04-01T00:50:31;98856.66;;;11.35;100.00
74524;BME280;63074;44.696;10.358;2023-04-01T00:53:01;98854.81;;;11.26;100.00
74524;BME280;63074;44.696;10.358;2023-04-01T00:55:29;98861.22;;;11.09;100.00
74524;BME280;63074;44.696;10.358;2023-04-01T00:57:59;98859.88;;;11.12;100.00
74524;BME280;63074;44.696;10.358;2023-04-01T01:00:27;98867.66;;;11.03;100.00
74524;BME280;63074;44.696;10.358;2023-04-01T01:02:53;98857.44;;;11.00;100.00
74524;BME280;63074;44.696;10.358;2023-04-01T01:05:27;98852.59;;;10.92;100.00
74524;BME280;63074;44.696;10.358;2023-04-01T01:08:10;98854.75;;;10.85;100.00
74524;BME280;63074;44.696;10.358;2023-04-01T01:10:42;98858.44;;;10.59;100.00
74524;BME280;63074;44.696;10.358;2023-04-01T01:13:49;98848.78;;;10.63;100.00
74524;BME280;63074;44.696;10.358;2023-04-01T01:16:27;98849.97;;;10.25;100.00
74524;BME280;63074;44.696;10.358;2023-04-01T01:19:39;98849.28;;;9.97;100.00
74524;BME280;63074;44.696;10.358;2023-04-01T01:25:25;98844.00;;;9.65;100.00
74524;BME280;63074;44.696;10.358;2023-04-01T01:31:23;98825.53;;;9.32;100.00
74524;BME280;63074;44.696;10.358;2023-04-01T01:34:11;98823.91;;;9.31;100.00
74524;BME280;63074;44.696;10.358;2023-04-01T01:36:42;98817.28;;;9.38;100.00
74524;BME280;63074;44.696;10.358;2023-04-01T01:39:13;98818.81;;;9.29;100.00
74524;BME280;63074;44.696;10.358;2023-04-01T01:41:42;98812.88;;;9.22;100.00
74524;BME280;63074;44.696;10.358;2023-04-01T01:44:11;98815.50;;;9.17;100.00
74524;BME280;63074;44.696;10.358;2023-04-01T01:46:39;98805.53;;;9.44;100.00
74524;BME280;63074;44.696;10.358;2023-04-01T01:49:08;98806.31;;;9.92;100.00
74524;BME280;63074;44.696;10.358;2023-04-01T01:51:36;98801.97;;;9.76;100.00
74524;BME280;63074;44.696;10.358;2023-04-01T01:54:02;98797.44;;;9.81;100.00
74524;BME280;63074;44.696;10.358;2023-04-01T01:56:29;98801.16;;;9.75;100.00
74524;BME280;63074;44.696;10.358;2023-04-01T01:59:03;98797.38;;;9.71;100.00
74524;BME280;63074;44.696;10.358;2023-04-01T02:01:37;98797.41;;;9.76;100.00
74524;BME280;63074;44.696;10.358;2023-04-01T02:04:04;98806.34;;;9.97;100.00
74524;BME280;63074;44.696;10.358;2023-04-01T02:06:34;98802.91;;;10.07;100.00
74524;BME280;63074;44.696;10.358;2023-04-01T02:09:05;98796.59;;;10.33;100.00
74524;BME280;63074;44.696;10.358;2023-04-01T02:11:46;98800.34;;;10.42;100.00
74524;BME280;63074;44.696;10.358;2023-04-01T02:14:28;98802.41;;;10.10;100.00
74524;BME280;63074;44.696;10.358;2023-04-01T02:17:12;98810.81;;;9.76;100.00
74524;BME280;63074;44.696;10.358;2023-04-01T02:19:52;98812.94;;;9.32;100.00
74524;BME280;63074;44.696;10.358;2023-04-01T02:22:22;98817.91;;;10.03;100.00
74524;BME280;63074;44.696;10.358;2023-04-01T02:24:51;98819.41;;;10.31;100.00
74524;BME280;63074;44.696;10.358;2023-04-01T02:27:19;98815.78;;;10.05;100.00
74524;BME280;63074;44.696;10.358;2023-04-01T02:29:46;98825.47;;;9.27;100.00
74524;BME280;63074;44.696;10.358;2023-04-01T02:32:13;98824.91;;;9.20;100.00
74524;BME280;63074;44.696;10.358;2023-04-01T02:34:41;98825.81;;;9.72;100.00
74524;BME280;63074;44.696;10.358;2023-04-01T02:37:08;98825.63;;;9.89;100.00
74524;BME280;63074;44.696;10.358;2023-04-01T02:39:34;98829.75;;;10.07;100.00
74524;BME280;63074;44.696;10.358;2023-04-01T02:42:00;98838.41;;;9.35;100.00
74524;BME280;63074;44.696;10.358;2023-04-01T02:44:26;98838.63;;;8.69;100.00
74524;BME280;63074;44.696;10.358;2023-04-01T02:46:53;98840.88;;;8.77;100.00
74524;BME280;63074;44.696;10.358;2023-04-01T02:49:19;98851.75;;;8.93;100.00
74524;BME280;63074;44.696;10.358;2023-04-01T02:51:45;98847.41;;;9.19;100.00
74524;BME280;63074;44.696;10.358;2023-04-01T02:54:11;98854.50;;;9.35;100.00
74524;BME280;63074;44.696;10.358;2023-04-01T02:56:37;98855.00;;;9.32;100.00
74524;BME280;63074;44.696;10.358;2023-04-01T02:59:03;98863.69;;;9.44;100.00
74524;BME280;63074;44.696;10.358;2023-04-01T03:01:30;98861.06;;;9.49;100.00
74524;BME280;63074;44.696;10.358;2023-04-01T03:03:56;98867.53;;;9.21;100.00
74524;BME280;63074;44.696;10.358;2023-04-01T03:06:22;98872.31;;;8.87;100.00
74524;BME280;63074;44.696;10.358;2023-04-01T03:08:48;98874.56;;;9.00;100.00
74524;BME280;63074;44.696;10.358;2023-04-01T03:11:14;98877.84;;;8.80;100.00
74524;BME280;63074;44.696;10.358;2023-04-01T03:13:41;98877.66;;;8.87;100.00
74524;BME280;63074;44.696;10.358;2023-04-01T03:16:07;98871.94;;;9.05;100.00
74524;BME280;63074;44.696;10.358;2023-04-01T03:18:33;98874.97;;;9.14;100.00
74524;BME280;63074;44.696;10.358;2023-04-01T03:21:17;98876.94;;;9.24;100.00
74524;BME280;63074;44.696;10.358;2023-04-01T03:23:44;98877.03;;;9.07;100.00
74524;BME280;63074;44.696;10.358;2023-04-01T03:26:10;98877.00;;;9.02;100.00
74524;BME280;63074;44.696;10.358;2023-04-01T03:28:36;98879.22;;;8.83;100.00
74524;BME280;63074;44.696;10.358;2023-04-01T03:31:02;98870.94;;;7.97;100.00
74524;BME280;63074;44.696;10.358;2023-04-01T03:33:29;98874.69;;;7.96;100.00
74524;BME280;63074;44.696;10.358;2023-04-01T03:35:55;98871.28;;;7.84;100.00
74524;BME280;63074;44.696;10.358;2023-04-01T03:38:21;98873.69;;;8.02;100.00
74524;BME280;63074;44.696;10.358;2023-04-01T03:40:47;98869.25;;;8.13;100.00
74524;BME280;63074;44.696;10.358;2023-04-01T03:43:13;98875.72;;;7.95;100.00
74524;BME280;63074;44.696;10.358;2023-04-01T03:45:49;98874.00;;;7.67;100.00
74524;BME280;63074;44.696;10.358;2023-04-01T03:48:16;98881.16;;;7.84;100.00
74524;BME280;63074;44.696;10.358;2023-04-01T03:50:43;98880.13;;;7.85;100.00
74524;BME280;63074;44.696;10.358;2023-04-01T03:53:09;98891.41;;;7.53;100.00
74524;BME280;63074;44.696;10.358;2023-04-01T03:55:36;98884.41;;;7.86;100.00
74524;BME280;63074;44.696;10.358;2023-04-01T03:58:04;98882.84;;;8.06;100.00
74524;BME280;63074;44.696;10.358;2023-04-01T04:00:30;98872.56;;;8.37;100.00
74524;BME280;63074;44.696;10.358;2023-04-01T04:02:57;98884.88;;;7.99;100.00
74524;BME280;63074;44.696;10.358;2023-04-01T04:05:24;98872.56;;;8.20;100.00
74524;BME280;63074;44.696;10.358;2023-04-01T04:07:51;98877.28;;;8.13;100.00
74524;BME280;63074;44.696;10.358;2023-04-01T04:10:18;98892.72;;;8.44;100.00
74524;BME280;63074;44.696;10.358;2023-04-01T04:12:44;98888.31;;;8.33;100.00
74524;BME280;63074;44.696;10.358;2023-04-01T04:15:11;98885.03;;;8.31;100.00
74524;BME280;63074;44.696;10.358;2023-04-01T04:17:37;98887.00;;;7.97;100.00
74524;BME280;63074;44.696;10.358;2023-04-01T04:20:04;98895.97;;;8.08;100.00
74524;BME280;63074;44.696;10.358;2023-04-01T04:22:30;98901.75;;;8.22;100.00
74524;BME280;63074;44.696;10.358;2023-04-01T04:24:56;98907.38;;;7.48;100.00
74524;BME280;63074;44.696;10.358;2023-04-01T04:27:22;98908.72;;;7.84;100.00
74524;BME280;63074;44.696;10.358;2023-04-01T04:29:48;98913.69;;;7.75;100.00
74524;BME280;63074;44.696;10.358;2023-04-01T04:32:15;98912.56;;;7.55;100.00
74524;BME280;63074;44.696;10.358;2023-04-01T04:34:41;98911.03;;;7.75;100.00
74524;BME280;63074;44.696;10.358;2023-04-01T04:37:07;98917.59;;;7.68;100.00
74524;BME280;63074;44.696;10.358;2023-04-01T04:39:33;98914.44;;;7.71;100.00
74524;BME280;63074;44.696;10.358;2023-04-01T04:41:59;98927.31;;;7.74;100.00
74524;BME280;63074;44.696;10.358;2023-04-01T04:44:25;98930.16;;;7.67;100.00
74524;BME280;63074;44.696;10.358;2023-04-01T04:46:52;98929.50;;;7.43;100.00
74524;BME280;63074;44.696;10.358;2023-04-01T04:49:18;98930.25;;;7.10;100.00
74524;BME280;63074;44.696;10.358;2023-04-01T04:51:44;98932.31;;;6.92;100.00
74524;BME280;63074;44.696;10.358;2023-04-01T04:54:11;98930.59;;;7.14;100.00
74524;BME280;63074;44.696;10.358;2023-04-01T04:56:38;98927.16;;;7.02;100.00
74524;BME280;63074;44.696;10.358;2023-04-01T04:59:04;98930.47;;;7.37;100.00
74524;BME280;63074;44.696;10.358;2023-04-01T05:01:31;98932.22;;;7.32;100.00
74524;BME280;63074;44.696;10.358;2023-04-01T05:03:59;98939.63;;;7.58;100.00
74524;BME280;63074;44.696;10.358;2023-04-01T05:06:26;98937.78;;;7.75;100.00
74524;BME280;63074;44.696;10.358;2023-04-01T05:08:55;98937.97;;;7.91;100.00
74524;BME280;63074;44.696;10.358;2023-04-01T05:11:22;98928.88;;;8.08;100.00
74524;BME280;63074;44.696;10.358;2023-04-01T05:13:49;98933.84;;;7.83;100.00
74524;BME280;63074;44.696;10.358;2023-04-01T05:16:18;98937.56;;;7.82;100.00
74524;BME280;63074;44.696;10.358;2023-04-01T05:18:45;98933.94;;;7.38;100.00
74524;BME280;63074;44.696;10.358;2023-04-01T05:21:12;98936.63;;;7.38;100.00
74524;BME280;63074;44.696;10.358;2023-04-01T05:23:39;98936.47;;;7.44;100.00
74524;BME280;63074;44.696;10.358;2023-04-01T05:26:06;98930.22;;;7.56;100.00
74524;BME280;63074;44.696;10.358;2023-04-01T05:28:33;98935.66;;;7.44;100.00
74524;BME280;63074;44.696;10.358;2023-04-01T05:31:00;98933.06;;;7.49;100.00
74524;BME280;63074;44.696;10.358;2023-04-01T05:33:27;98934.94;;;7.49;100.00
74524;BME280;63074;44.696;10.358;2023-04-01T05:35:54;98929.69;;;7.08;100.00
74524;BME280;63074;44.696;10.358;2023-04-01T05:38:21;98943.56;;;6.94;100.00
74524;BME280;63074;44.696;10.358;2023-04-01T05:40:47;98941.19;;;6.81;100.00
74524;BME280;63074;44.696;10.358;2023-04-01T05:43:13;98945.38;;;7.05;100.00
74524;BME280;63074;44.696;10.358;2023-04-01T05:45:39;98945.84;;;6.73;100.00
74524;BME280;63074;44.696;10.358;2023-04-01T05:48:05;98954.00;;;6.95;100.00
74524;BME280;63074;44.696;10.358;2023-04-01T05:50:31;98951.16;;;7.14;100.00
74524;BME280;63074;44.696;10.358;2023-04-01T05:52:58;98962.28;;;7.39;100.00
74524;BME280;63074;44.696;10.358;2023-04-01T05:55:24;98963.69;;;7.75;100.00
74524;BME280;63074;44.696;10.358;2023-04-01T05:57:50;98958.13;;;8.15;100.00
74524;BME280;63074;44.696;10.358;2023-04-01T06:00:17;98956.72;;;8.07;100.00
74524;BME280;63074;44.696;10.358;2023-04-01T06:02:45;98959.34;;;8.24;100.00
74524;BME280;63074;44.696;10.358;2023-04-01T06:05:24;98959.78;;;8.33;100.00
74524;BME280;63074;44.696;10.358;2023-04-01T06:07:59;98962.31;;;8.44;100.00
74524;BME280;63074;44.696;10.358;2023-04-01T06:10:48;98964.63;;;8.79;100.00
74524;BME280;63074;44.696;10.358;2023-04-01T06:24:26;98973.69;;;9.22;100.00
74524;BME280;63074;44.696;10.358;2023-04-01T06:30:19;98970.91;;;9.39;100.00
74524;BME280;63074;44.696;10.358;2023-04-01T06:49:24;98973.84;;;10.01;100.00
74524;BME280;63074;44.696;10.358;2023-04-01T06:54:40;98975.81;;;10.16;100.00
74524;BME280;63074;44.696;10.358;2023-04-01T06:57:23;98975.16;;;10.31;100.00
74524;BME280;63074;44.696;10.358;2023-04-01T06:59:56;98974.13;;;10.42;100.00
74524;BME280;63074;44.696;10.358;2023-04-01T07:02:39;98967.97;;;10.46;100.00
74524;BME280;63074;44.696;10.358;2023-04-01T07:05:08;98976.34;;;10.55;100.00
74524;BME280;63074;44.696;10.358;2023-04-01T07:07:48;98984.91;;;10.10;100.00
74524;BME280;63074;44.696;10.358;2023-04-01T07:10:47;98975.19;;;10.36;100.00
74524;BME280;63074;44.696;10.358;2023-04-01T07:13:27;98985.19;;;10.13;100.00
74524;BME280;63074;44.696;10.358;2023-04-01T07:19:25;98971.69;;;10.40;100.00
74524;BME280;63074;44.696;10.358;2023-04-01T07:22:03;98969.66;;;10.58;100.00
74524;BME280;63074;44.696;10.358;2023-04-01T07:24:39;98966.50;;;10.76;100.00
74524;BME280;63074;44.696;10.358;2023-04-01T07:27:10;98962.75;;;10.82;100.00
74524;BME280;63074;44.696;10.358;2023-04-01T07:29:37;98964.84;;;10.65;100.00
74524;BME280;63074;44.696;10.358;2023-04-01T07:32:09;98956.81;;;10.75;100.00
74524;BME280;63074;44.696;10.358;2023-04-01T07:46:23;98960.56;;;11.82;100.00
74524;BME280;63074;44.696;10.358;2023-04-01T07:51:14;98955.69;;;12.09;100.00
74524;BME280;63074;44.696;10.358;2023-04-01T07:53:51;98960.78;;;12.21;100.00
74524;BME280;63074;44.696;10.358;2023-04-01T07:59:23;98955.81;;;14.25;66.26
74524;BME280;63074;44.696;10.358;2023-04-01T08:21:51;98962.50;;;15.42;42.67
74524;BME280;63074;44.696;10.358;2023-04-01T08:24:42;98959.44;;;15.30;45.06
74524;BME280;63074;44.696;10.358;2023-04-01T08:27:17;98953.44;;;15.70;41.70
74524;BME280;63074;44.696;10.358;2023-04-01T08:32:38;98951.53;;;15.71;42.62
74524;BME280;63074;44.696;10.358;2023-04-01T08:37:40;98954.53;;;16.02;39.30
74524;BME280;63074;44.696;10.358;2023-04-01T08:46:12;98961.44;;;15.94;39.55
74524;BME280;63074;44.696;10.358;2023-04-01T08:52:13;98966.78;;;16.45;37.69
74524;BME280;63074;44.696;10.358;2023-04-01T08:57:42;98964.06;;;16.45;36.68
74524;BME280;63074;44.696;10.358;2023-04-01T09:02:51;98957.81;;;16.59;36.52
74524;BME280;63074;44.696;10.358;2023-04-01T09:28:20;98965.50;;;17.34;36.92
74524;BME280;63074;44.696;10.358;2023-04-01T09:44:59;98969.47;;;17.50;35.19
74524;BME280;63074;44.696;10.358;2023-04-01T09:50:24;98976.88;;;17.72;36.89
74524;BME280;63074;44.696;10.358;2023-04-01T10:15:06;98966.00;;;18.56;38.46
74524;BME280;63074;44.696;10.358;2023-04-01T10:24:00;98963.41;;;18.82;41.76
74524;BME280;63074;44.696;10.358;2023-04-01T11:27:49;98921.69;;;21.04;37.19
74524;BME280;63074;44.696;10.358;2023-04-01T11:33:19;98916.91;;;21.43;30.59
74524;BME280;63074;44.696;10.358;2023-04-01T11:55:23;98907.91;;;21.63;30.68
74524;BME280;63074;44.696;10.358;2023-04-01T12:06:30;98897.84;;;22.57;29.75
74524;BME280;63074;44.696;10.358;2023-04-01T12:14:50;98876.84;;;22.86;32.24
74524;BME280;63074;44.696;10.358;2023-04-01T12:23:27;98876.06;;;21.46;28.65
74524;BME280;63074;44.696;10.358;2023-04-01T12:26:00;98868.88;;;22.93;29.82
74524;BME280;63074;44.696;10.358;2023-04-01T12:31:42;98886.91;;;22.70;27.55
74524;BME280;63074;44.696;10.358;2023-04-01T12:42:33;98876.19;;;22.77;28.87
74524;BME280;63074;44.696;10.358;2023-04-01T12:55:48;98868.06;;;23.88;26.70
74524;BME280;63074;44.696;10.358;2023-04-01T12:58:51;98860.31;;;24.22;27.53
74524;BME280;63074;44.696;10.358;2023-04-01T13:01:28;98859.00;;;23.44;26.43
74524;BME280;63074;44.696;10.358;2023-04-01T13:25:58;98842.16;;;24.49;26.90
74524;BME280;63074;44.696;10.358;2023-04-01T13:28:44;98836.31;;;23.87;26.32
74524;BME280;63074;44.696;10.358;2023-04-01T13:31:33;98837.94;;;24.71;26.51
74524;BME280;63074;44.696;10.358;2023-04-01T13:45:58;98842.09;;;25.96;27.00
74524;BME280;63074;44.696;10.358;2023-04-01T14:10:40;98831.63;;;24.51;25.74
74524;BME280;63074;44.696;10.358;2023-04-01T14:13:20;98829.59;;;24.16;26.22
74524;BME280;63074;44.696;10.358;2023-04-01T14:18:36;98825.84;;;26.37;25.08
74524;BME280;63074;44.696;10.358;2023-04-01T14:21:46;98824.31;;;24.94;27.14
74524;BME280;63074;44.696;10.358;2023-04-01T14:24:07;98821.78;;;25.62;27.51
74524;BME280;63074;44.696;10.358;2023-04-01T14:32:23;98811.56;;;25.82;24.62
74524;BME280;63074;44.696;10.358;2023-04-01T14:35:19;98812.25;;;24.63;25.32
74524;BME280;63074;44.696;10.358;2023-04-01T14:46:34;98813.78;;;24.61;25.88
74524;BME280;63074;44.696;10.358;2023-04-01T14:52:25;98813.25;;;23.61;26.17
74524;BME280;63074;44.696;10.358;2023-04-01T14:54:54;98813.47;;;24.46;25.85
74524;BME280;63074;44.696;10.358;2023-04-01T14:57:30;98814.34;;;23.87;25.96
74524;BME280;63074;44.696;10.358;2023-04-01T15:00:15;98808.69;;;24.43;26.30
74524;BME280;63074;44.696;10.358;2023-04-01T15:03:02;98804.78;;;24.44;26.80
74524;BME280;63074;44.696;10.358;2023-04-01T15:06:24;98804.84;;;23.69;25.62
74524;BME280;63074;44.696;10.358;2023-04-01T15:08:30;98809.78;;;24.58;25.50
74524;BME280;63074;44.696;10.358;2023-04-01T15:11:12;98805.97;;;24.63;25.28
74524;BME280;63074;44.696;10.358;2023-04-01T15:14:04;98801.28;;;24.98;24.75
74524;BME280;63074;44.696;10.358;2023-04-01T15:27:15;98797.16;;;23.59;26.52
74524;BME280;63074;44.696;10.358;2023-04-01T15:43:50;98806.56;;;22.90;27.53
74524;BME280;63074;44.696;10.358;2023-04-01T15:49:33;98815.47;;;21.44;29.72
74524;BME280;63074;44.696;10.358;2023-04-01T15:52:11;98823.31;;;20.71;31.95
74524;BME280;63074;44.696;10.358;2023-04-01T16:00:26;98806.50;;;19.20;34.71
74524;BME280;63074;44.696;10.358;2023-04-01T16:03:20;98806.94;;;18.53;34.76
74524;BME280;63074;44.696;10.358;2023-04-01T16:09:00;98803.16;;;18.80;36.31
74524;BME280;63074;44.696;10.358;2023-04-01T16:20:19;98797.97;;;18.53;37.66
74524;BME280;63074;44.696;10.358;2023-04-01T16:25:55;98796.91;;;18.06;39.47
74524;BME280;63074;44.696;10.358;2023-04-01T16:28:52;98792.47;;;18.18;39.81
74524;BME280;63074;44.696;10.358;2023-04-01T16:31:31;98795.63;;;18.03;39.90
74524;BME280;63074;44.696;10.358;2023-04-01T16:36:51;98801.44;;;17.79;40.54
74524;BME280;63074;44.696;10.358;2023-04-01T16:39:44;98789.28;;;17.77;41.25
74524;BME280;63074;44.696;10.358;2023-04-01T16:42:49;98780.69;;;17.83;41.10
74524;BME280;63074;44.696;10.358;2023-04-01T16:45:41;98788.16;;;17.78;42.06
74524;BME280;63074;44.696;10.358;2023-04-01T16:51:16;98786.88;;;17.22;44.34
74524;BME280;63074;44.696;10.358;2023-04-01T16:54:05;98781.56;;;17.17;44.71
74524;BME280;63074;44.696;10.358;2023-04-01T16:56:43;98774.53;;;17.16;45.09
74524;BME280;63074;44.696;10.358;2023-04-01T17:04:33;98787.41;;;17.33;45.11
74524;BME280;63074;44.696;10.358;2023-04-01T17:18:06;98787.09;;;17.57;44.92
74524;BME280;63074;44.696;10.358;2023-04-01T17:21:38;98785.78;;;17.54;45.33
74524;BME280;63074;44.696;10.358;2023-04-01T17:32:39;98791.91;;;16.70;48.66
74524;BME280;63074;44.696;10.358;2023-04-01T17:35:18;98791.81;;;16.48;49.38
74524;BME280;63074;44.696;10.358;2023-04-01T17:45:53;98795.88;;;15.96;51.05
74524;BME280;63074;44.696;10.358;2023-04-01T17:48:42;98795.56;;;15.83;52.22
74524;BME280;63074;44.696;10.358;2023-04-01T17:51:19;98800.59;;;15.76;52.43
74524;BME280;63074;44.696;10.358;2023-04-01T17:54:18;98798.88;;;15.80;53.38
74524;BME280;63074;44.696;10.358;2023-04-01T17:57:10;98818.81;;;15.71;55.08
74524;BME280;63074;44.696;10.358;2023-04-01T18:03:17;98804.31;;;15.48;55.67
74524;BME280;63074;44.696;10.358;2023-04-01T18:06:53;98811.06;;;15.32;56.57
74524;BME280;63074;44.696;10.358;2023-04-01T18:09:18;98816.38;;;15.23;56.66
74524;BME280;63074;44.696;10.358;2023-04-01T18:12:05;98812.31;;;15.39;56.47
74524;BME280;63074;44.696;10.358;2023-04-01T18:25:27;98818.03;;;14.86;61.59
74524;BME280;63074;44.696;10.358;2023-04-01T18:30:41;98812.88;;;15.04;59.32
74524;BME280;63074;44.696;10.358;2023-04-01T18:33:32;98813.97;;;15.03;58.69
74524;BME280;63074;44.696;10.358;2023-04-01T18:38:52;98815.13;;;15.15;58.64
74524;BME280;63074;44.696;10.358;2023-04-01T18:52:45;98821.47;;;14.92;57.40
74524;BME280;63074;44.696;10.358;2023-04-01T18:55:24;98825.78;;;14.93;57.05
74524;BME280;63074;44.696;10.358;2023-04-01T18:58:17;98824.16;;;14.92;57.16
74524;BME280;63074;44.696;10.358;2023-04-01T19:01:15;98824.31;;;15.01;57.20
74524;BME280;63074;44.696;10.358;2023-04-01T19:06:50;98823.28;;;14.97;57.93
74524;BME280;63074;44.696;10.358;2023-04-01T19:27:52;98828.69;;;14.59;60.45
74524;BME280;63074;44.696;10.358;2023-04-01T19:30:46;98834.78;;;14.70;63.70
74524;BME280;63074;44.696;10.358;2023-04-01T19:38:40;98835.38;;;14.19;64.10
74524;BME280;63074;44.696;10.358;2023-04-01T19:46:45;98825.88;;;14.45;64.23
74524;BME280;63074;44.696;10.358;2023-04-01T19:51:57;98830.94;;;14.28;63.37
74524;BME280;63074;44.696;10.358;2023-04-01T20:05:44;98831.56;;;13.96;61.76
74524;BME280;63074;44.696;10.358;2023-04-01T20:19:28;98845.03;;;14.25;60.09
74524;BME280;63074;44.696;10.358;2023-04-01T20:21:59;98846.34;;;14.28;60.24
74524;BME280;63074;44.696;10.358;2023-04-01T20:24:45;98846.75;;;14.16;60.72
74524;BME280;63074;44.696;10.358;2023-04-01T20:27:23;98850.44;;;14.25;61.00
74524;BME280;63074;44.696;10.358;2023-04-01T20:30:12;98854.56;;;14.17;61.46
74524;BME280;63074;44.696;10.358;2023-04-01T20:32:55;98852.56;;;14.28;61.58
74524;BME280;63074;44.696;10.358;2023-04-01T20:35:41;98861.81;;;14.22;62.22
74524;BME280;63074;44.696;10.358;2023-04-01T20:41:28;98867.44;;;14.02;63.17
74524;BME280;63074;44.696;10.358;2023-04-01T20:44:12;98854.41;;;14.09;62.76
74524;BME280;63074;44.696;10.358;2023-04-01T20:46:41;98869.09;;;14.22;61.36
74524;BME280;63074;44.696;10.358;2023-04-01T20:52:19;98853.19;;;14.20;61.31
74524;BME280;63074;44.696;10.358;2023-04-01T21:18:09;98847.97;;;14.05;59.97
74524;BME280;63074;44.696;10.358;2023-04-01T21:28:47;98857.91;;;13.57;61.04
74524;BME280;63074;44.696;10.358;2023-04-01T22:07:14;98860.06;;;13.26;57.52
74524;BME280;63074;44.696;10.358;2023-04-01T22:15:19;98881.75;;;13.00;58.93
74524;BME280;63074;44.696;10.358;2023-04-01T22:17:53;98869.00;;;13.16;59.27
74524;BME280;63074;44.696;10.358;2023-04-01T22:20:33;98869.84;;;13.06;60.42
74524;BME280;63074;44.696;10.358;2023-04-01T22:23:16;98875.09;;;12.88;60.21
74524;BME280;63074;44.696;10.358;2023-04-01T22:26:34;98876.97;;;12.92;59.26
74524;BME280;63074;44.696;10.358;2023-04-01T22:29:19;98869.44;;;12.89;58.16
74524;BME280;63074;44.696;10.358;2023-04-01T22:42:51;98874.66;;;13.14;54.57
74524;BME280;63074;44.696;10.358;2023-04-01T22:45:40;98880.72;;;13.35;54.05
74524;BME280;63074;44.696;10.358;2023-04-01T22:48:13;98869.97;;;13.30;53.88
74524;BME280;63074;44.696;10.358;2023-04-01T22:53:37;98870.72;;;13.41;54.29
74524;BME280;63074;44.696;10.358;2023-04-01T22:56:15;98865.66;;;13.29;54.83
74524;BME280;63074;44.696;10.358;2023-04-01T23:01:32;98865.72;;;13.24;54.91
74524;BME280;63074;44.696;10.358;2023-04-01T23:04:03;98869.53;;;13.13;55.86
74524;BME280;63074;44.696;10.358;2023-04-01T23:06:38;98871.56;;;12.92;56.30
74524;BME280;63074;44.696;10.358;2023-04-01T23:09:08;98868.78;;;13.02;55.94
74524;BME280;63074;44.696;10.358;2023-04-01T23:11:52;98871.03;;;12.95;57.00
74524;BME280;63074;44.696;10.358;2023-04-01T23:14:28;98873.22;;;12.88;58.20
74524;BME280;63074;44.696;10.358;2023-04-01T23:17:12;98874.63;;;12.75;58.78
74524;BME280;63074;44.696;10.358;2023-04-01T23:28:45;98877.63;;;12.69;58.28
74524;BME280;63074;44.696;10.358;2023-04-01T23:31:35;98871.97;;;12.70;57.69
74524;BME280;63074;44.696;10.358;2023-04-01T23:36:49;98878.56;;;12.93;57.68
74524;BME280;63074;44.696;10.358;2023-04-01T23:41:50;98902.69;;;11.54;69.17
74524;BME280;63074;44.696;10.358;2023-04-01T23:44:17;98908.03;;;11.44;71.39
74524;BME280;63074;44.696;10.358;2023-04-01T23:46:47;98900.22;;;11.63;68.92
74524;BME280;63074;44.696;10.358;2023-04-01T23:49:28;98892.41;;;11.97;66.04
74524;BME280;63074;44.696;10.358;2023-04-01T23:52:03;98910.72;;;11.24;72.86
74524;BME280;63074;44.696;10.358;2023-04-01T23:54:33;98910.69;;;11.08;78.90
74524;BME280;63074;44.696;10.358;2023-04-01T23:57:03;98909.59;;;11.04;83.74
74524;BME280;63074;44.696;10.358;2023-04-01T23:59:33;98912.78;;;10.81;86.00
